Time;durP1;ratioP1;P1;durP2;ratioP2;P2;SDS_P1;SDS_P2;PMS_P1;PMS_P2;Temp;Humidity;BMP_temperature;BMP_pressure;BME280_temperature;BME280_humidity;BME280_pressure;Samples;Min_cycle;Max_cycle;Signal;HPM_P1;HPM_P2
2021/10/27 00:00:55;;;;;;;18.52;12.55;;;7.70;99.90;;;;;;2105488;28;20024;-72
2021/10/27 00:01:55;;;;;;;16.50;11.93;;;7.70;99.90;;;;;;2105474;28;20047;-70
2021/10/27 00:02:56;;;;;;;16.85;11.82;;;7.70;99.90;;;;;;2106057;28;20035;-71
2021/10/27 00:03:56;;;;;;;15.98;11.77;;;7.70;99.90;;;;;;2106113;28;20020;-71
2021/10/27 00:04:57;;;;;;;17.85;12.43;;;7.70;99.90;;;;;;2106258;28;20464;-70
2021/10/27 00:05:58;;;;;;;18.52;12.13;;;7.70;99.90;;;;;;2105303;28;20031;-70
2021/10/27 00:06:59;;;;;;;17.95;12.02;;;7.70;99.90;;;;;;2105253;28;20028;-70
2021/10/27 00:08:00;;;;;;;17.08;11.48;;;7.60;99.90;;;;;;2105518;28;20066;-71
2021/10/27 00:09:00;;;;;;;17.88;11.93;;;7.60;99.90;;;;;;2105513;28;20123;-69
2021/10/27 00:10:01;;;;;;;18.23;12.48;;;7.60;99.90;;;;;;2106220;28;20143;-71
2021/10/27 00:11:02;;;;;;;18.02;12.27;;;7.60;99.90;;;;;;2105336;28;20099;-72
2021/10/27 00:12:03;;;;;;;18.27;12.25;;;7.60;99.90;;;;;;2105372;28;20103;-71
2021/10/27 00:13:06;;;;;;;17.42;12.05;;;7.60;99.90;;;;;;2106067;28;20072;-71
2021/10/27 00:14:07;;;;;;;24.30;14.60;;;7.50;99.90;;;;;;2106099;28;20031;-71
2021/10/27 00:15:10;;;;;;;27.15;15.25;;;7.50;99.90;;;;;;2106081;28;20021;-72
2021/10/27 00:16:11;;;;;;;26.10;15.02;;;7.50;99.90;;;;;;2105299;28;20074;-69
2021/10/27 00:17:11;;;;;;;25.88;14.77;;;7.50;99.90;;;;;;2105476;28;20036;-70
2021/10/27 00:18:12;;;;;;;23.25;14.07;;;7.50;99.90;;;;;;2106081;28;20035;-71
2021/10/27 00:19:14;;;;;;;25.20;14.25;;;7.50;99.90;;;;;;2105416;28;20467;-71
2021/10/27 00:20:14;;;;;;;24.27;14.23;;;7.50;99.90;;;;;;2105407;28;20020;-71
2021/10/27 00:21:15;;;;;;;26.55;15.10;;;7.40;99.90;;;;;;2105966;28;20027;-70
2021/10/27 00:22:15;;;;;;;28.27;15.27;;;7.40;99.90;;;;;;2106042;28;20046;-70
2021/10/27 00:23:16;;;;;;;23.65;14.55;;;7.40;99.90;;;;;;2106320;28;20498;-74
2021/10/27 00:24:17;;;;;;;25.25;14.30;;;7.40;99.90;;;;;;2105763;28;20497;-71
2021/10/27 00:25:18;;;;;;;25.30;14.23;;;7.40;99.90;;;;;;2105551;28;20032;-70
2021/10/27 00:26:18;;;;;;;24.42;14.35;;;7.40;99.90;;;;;;2105263;28;20032;-71
2021/10/27 00:27:19;;;;;;;23.45;13.73;;;7.40;99.90;;;;;;2105438;28;20020;-70
2021/10/27 00:28:20;;;;;;;21.58;13.48;;;7.40;99.90;;;;;;2105264;28;20808;-69
2021/10/27 00:29:20;;;;;;;20.95;13.52;;;7.40;99.90;;;;;;2105399;28;20040;-73
2021/10/27 00:30:21;;;;;;;20.92;13.48;;;7.40;99.90;;;;;;2106044;28;20073;-70
2021/10/27 00:31:23;;;;;;;20.15;13.18;;;7.40;99.90;;;;;;2105933;28;20077;-71
2021/10/27 00:32:23;;;;;;;22.23;13.95;;;7.40;99.90;;;;;;2106272;28;20035;-71
2021/10/27 00:33:24;;;;;;;22.35;14.52;;;7.40;99.90;;;;;;2105555;28;20032;-70
2021/10/27 00:34:25;;;;;;;19.83;13.60;;;7.40;99.90;;;;;;2105683;28;20391;-72
2021/10/27 00:35:26;;;;;;;20.08;13.50;;;7.40;99.90;;;;;;2106134;28;20043;-72
2021/10/27 00:36:27;;;;;;;20.83;13.75;;;7.30;99.90;;;;;;2105900;28;20122;-70
2021/10/27 00:37:27;;;;;;;19.08;13.48;;;7.30;99.90;;;;;;2106020;28;20036;-71
2021/10/27 00:38:28;;;;;;;20.20;14.02;;;7.30;99.90;;;;;;2105793;28;20035;-71
2021/10/27 00:39:29;;;;;;;18.80;13.35;;;7.30;99.90;;;;;;2105908;28;20016;-72
2021/10/27 00:40:29;;;;;;;20.25;13.65;;;7.30;99.90;;;;;;2105905;28;20023;-71
2021/10/27 00:41:30;;;;;;;21.05;13.43;;;7.30;99.90;;;;;;2105681;28;20268;-70
2021/10/27 00:42:31;;;;;;;20.77;14.10;;;7.30;99.90;;;;;;2105889;28;20028;-72
2021/10/27 00:43:31;;;;;;;18.17;13.18;;;7.30;99.90;;;;;;2105813;28;20032;-69
2021/10/27 00:44:33;;;;;;;19.17;13.20;;;7.30;99.90;;;;;;2105739;28;20036;-71
2021/10/27 00:45:33;;;;;;;19.80;12.88;;;7.30;99.90;;;;;;2105478;28;20024;-70
2021/10/27 00:46:34;;;;;;;20.50;13.07;;;7.30;99.90;;;;;;2105716;28;20020;-70
2021/10/27 00:47:34;;;;;;;17.60;13.13;;;7.30;99.90;;;;;;2105831;28;20028;-70
2021/10/27 00:48:38;;;;;;;19.38;13.63;;;7.20;99.90;;;;;;2105625;28;20373;-70
2021/10/27 00:49:41;;;;;;;19.52;12.77;;;7.20;99.90;;;;;;2096857;28;20140;-70
2021/10/27 00:50:42;;;;;;;18.02;12.63;;;7.20;99.90;;;;;;2097207;28;20029;-70
2021/10/27 00:51:43;;;;;;;18.27;13.13;;;7.20;99.90;;;;;;2105008;28;20047;-70
2021/10/27 00:52:44;;;;;;;18.02;12.90;;;7.20;99.90;;;;;;2105783;28;20035;-70
2021/10/27 00:53:46;;;;;;;18.65;12.82;;;7.20;99.90;;;;;;2105082;28;20028;-70
2021/10/27 00:54:50;;;;;;;17.85;12.93;;;7.20;99.90;;;;;;2105236;28;20399;-72
2021/10/27 00:55:52;;;;;;;20.23;13.60;;;7.20;99.90;;;;;;2105411;28;20031;-69
2021/10/27 00:56:55;;;;;;;19.52;13.20;;;7.20;99.90;;;;;;2105719;28;20043;-69
2021/10/27 00:57:57;;;;;;;19.52;13.50;;;7.20;99.90;;;;;;2105618;28;20135;-70
2021/10/27 00:58:58;;;;;;;18.42;13.40;;;7.20;99.90;;;;;;2105702;28;20016;-69
2021/10/27 00:59:59;;;;;;;21.02;14.13;;;7.20;99.90;;;;;;2105161;28;20690;-71
2021/10/27 01:01:00;;;;;;;21.05;14.15;;;7.20;99.90;;;;;;2104805;28;20529;-70
2021/10/27 01:02:01;;;;;;;18.40;12.85;;;7.20;99.90;;;;;;2105731;28;20102;-70
2021/10/27 01:03:01;;;;;;;19.00;13.18;;;7.20;99.90;;;;;;2105613;28;20040;-70
2021/10/27 01:04:04;;;;;;;18.65;13.48;;;7.20;99.90;;;;;;2105579;28;20024;-71
2021/10/27 01:05:05;;;;;;;18.27;13.40;;;7.20;99.90;;;;;;2105487;28;20027;-71
2021/10/27 01:06:06;;;;;;;21.00;15.00;;;7.20;99.90;;;;;;2105386;28;20028;-72
2021/10/27 01:07:06;;;;;;;22.48;15.23;;;7.20;99.90;;;;;;2105597;28;20414;-71
2021/10/27 01:08:07;;;;;;;22.15;15.00;;;7.30;99.90;;;;;;2105618;28;20032;-71
2021/10/27 01:09:08;;;;;;;18.60;14.18;;;7.30;99.90;;;;;;2105512;28;20024;-71
2021/10/27 01:10:09;;;;;;;19.98;14.05;;;7.30;99.90;;;;;;2105613;28;20082;-72
2021/10/27 01:11:10;;;;;;;18.60;13.50;;;7.30;99.90;;;;;;2105339;28;20096;-71
2021/10/27 01:12:11;;;;;;;17.30;12.93;;;7.30;99.90;;;;;;2104826;28;20370;-71
2021/10/27 01:13:12;;;;;;;16.23;12.45;;;7.30;99.90;;;;;;2105130;28;20046;-70
2021/10/27 01:14:13;;;;;;;17.27;12.93;;;7.30;99.90;;;;;;2105860;28;20048;-71
2021/10/27 01:15:13;;;;;;;18.63;13.40;;;7.30;99.90;;;;;;2104948;28;20046;-71
2021/10/27 01:16:14;;;;;;;18.45;13.18;;;7.30;99.90;;;;;;2105339;28;20032;-71
2021/10/27 01:17:16;;;;;;;17.77;13.15;;;7.30;99.90;;;;;;2105591;28;20115;-71
2021/10/27 01:18:17;;;;;;;18.33;12.90;;;7.30;99.90;;;;;;2105713;28;20032;-71
2021/10/27 01:19:18;;;;;;;16.27;12.50;;;7.30;99.90;;;;;;2105764;28;20024;-71
2021/10/27 01:20:18;;;;;;;18.50;12.95;;;7.30;99.90;;;;;;2105626;28;20169;-71
2021/10/27 01:21:24;;;;;;;17.17;12.68;;;7.30;99.90;;;;;;2105521;28;20024;-71
2021/10/27 01:22:30;;;;;;;19.40;14.75;;;7.30;99.90;;;;;;2105458;28;20016;-71
2021/10/27 01:23:31;;;;;;;21.63;14.73;;;7.30;99.90;;;;;;2104815;28;20051;-71
2021/10/27 01:24:32;;;;;;;18.05;13.80;;;7.30;99.90;;;;;;2096352;28;20021;-70
2021/10/27 01:25:32;;;;;;;18.50;13.27;;;7.30;99.90;;;;;;2104490;28;20107;-71
2021/10/27 01:26:33;;;;;;;16.05;13.00;;;7.40;99.90;;;;;;2105431;28;20115;-71
2021/10/27 01:27:40;;;;;;;16.77;12.60;;;7.40;99.90;;;;;;2104802;28;20031;-71
2021/10/27 01:28:42;;;;;;;17.15;11.68;;;7.40;99.90;;;;;;2097149;28;20033;-70
2021/10/27 01:29:43;;;;;;;15.63;12.05;;;7.40;99.90;;;;;;2104819;28;20032;-71
2021/10/27 01:30:43;;;;;;;16.15;11.88;;;7.40;99.90;;;;;;2105330;28;20028;-72
2021/10/27 01:31:44;;;;;;;14.85;11.30;;;7.40;99.90;;;;;;2105339;28;20060;-71
2021/10/27 01:32:46;;;;;;;15.25;11.43;;;7.40;99.90;;;;;;2105425;28;20032;-71
2021/10/27 01:33:47;;;;;;;15.00;10.90;;;7.40;99.90;;;;;;2104626;28;20023;-71
2021/10/27 01:34:48;;;;;;;14.65;10.63;;;7.40;99.90;;;;;;2104537;28;20028;-71
2021/10/27 01:35:48;;;;;;;17.52;12.20;;;7.40;99.90;;;;;;2105030;28;20031;-70
2021/10/27 01:36:49;;;;;;;14.32;11.43;;;7.40;99.90;;;;;;2105333;28;20488;-71
2021/10/27 01:37:49;;;;;;;17.02;12.27;;;7.40;99.90;;;;;;2105315;28;20449;-71
2021/10/27 01:38:50;;;;;;;19.65;13.18;;;7.40;99.90;;;;;;2105261;28;20692;-71
2021/10/27 01:39:53;;;;;;;18.95;13.65;;;7.40;99.90;;;;;;2105345;28;20107;-71
2021/10/27 01:40:54;;;;;;;17.33;12.68;;;7.40;99.90;;;;;;2105333;28;20016;-71
2021/10/27 01:41:55;;;;;;;18.90;13.20;;;7.40;99.90;;;;;;2105279;28;20028;-71
2021/10/27 01:42:56;;;;;;;19.50;13.23;;;7.40;99.90;;;;;;2106482;28;20031;-70
2021/10/27 01:43:58;;;;;;;18.00;12.73;;;7.40;99.90;;;;;;2105440;28;20024;-70
2021/10/27 01:44:58;;;;;;;17.83;12.65;;;7.40;99.90;;;;;;2096712;28;20032;-70
2021/10/27 01:45:59;;;;;;;18.40;13.38;;;7.40;99.90;;;;;;2106656;28;20077;-69
2021/10/27 01:46:59;;;;;;;18.58;13.82;;;7.40;99.90;;;;;;2106846;28;20039;-70
2021/10/27 01:48:00;;;;;;;19.42;14.27;;;7.40;99.90;;;;;;2105540;28;20054;-70
2021/10/27 01:49:03;;;;;;;18.25;13.48;;;7.40;99.90;;;;;;2105370;28;20135;-71
2021/10/27 01:50:04;;;;;;;19.20;13.18;;;7.30;99.90;;;;;;2105327;28;20028;-71
2021/10/27 01:51:04;;;;;;;17.13;12.30;;;7.30;99.90;;;;;;2104608;28;20028;-70
2021/10/27 01:52:05;;;;;;;18.10;13.07;;;7.30;99.90;;;;;;2104616;28;20472;-71
2021/10/27 01:53:06;;;;;;;17.00;12.73;;;7.30;99.90;;;;;;2105365;28;20130;-71
2021/10/27 01:54:07;;;;;;;18.40;13.75;;;7.30;99.90;;;;;;2105270;28;20034;-70
2021/10/27 01:55:08;;;;;;;18.20;13.35;;;7.20;99.90;;;;;;2105364;28;20035;-70
2021/10/27 01:56:09;;;;;;;16.58;12.50;;;7.20;99.90;;;;;;2105078;28;20534;-73
2021/10/27 01:57:10;;;;;;;20.63;13.65;;;7.20;99.90;;;;;;2104612;28;20393;-73
2021/10/27 01:58:11;;;;;;;18.05;13.48;;;7.20;99.90;;;;;;2104820;28;20035;-73
2021/10/27 01:59:12;;;;;;;18.33;12.85;;;7.20;99.90;;;;;;2105227;28;20048;-71
2021/10/27 02:00:13;;;;;;;16.55;12.48;;;7.20;99.90;;;;;;2105268;28;20024;-71
2021/10/27 02:01:16;;;;;;;17.15;12.68;;;7.20;99.90;;;;;;2105198;28;20024;-73
2021/10/27 02:02:17;;;;;;;16.13;12.20;;;7.20;99.90;;;;;;2105385;28;20031;-71
2021/10/27 02:03:18;;;;;;;15.65;12.20;;;7.20;99.90;;;;;;2105304;28;20035;-71
2021/10/27 02:04:19;;;;;;;18.15;12.90;;;7.20;99.90;;;;;;2105268;28;20028;-71
2021/10/27 02:05:20;;;;;;;15.63;12.45;;;7.20;99.90;;;;;;2105363;28;20013;-72
2021/10/27 02:06:20;;;;;;;14.93;12.13;;;7.20;99.90;;;;;;2104930;28;20040;-71
2021/10/27 02:07:21;;;;;;;17.15;12.10;;;7.20;99.90;;;;;;2105249;28;20030;-72
2021/10/27 02:08:22;;;;;;;16.75;12.40;;;7.20;99.90;;;;;;2105163;28;20064;-70
2021/10/27 02:09:22;;;;;;;15.75;11.70;;;7.10;99.90;;;;;;2105296;28;20032;-70
2021/10/27 02:10:23;;;;;;;14.13;11.43;;;7.10;99.90;;;;;;2105293;28;20110;-72
2021/10/27 02:11:24;;;;;;;14.45;11.07;;;7.10;99.90;;;;;;2105096;28;20482;-73
2021/10/27 02:12:24;;;;;;;16.17;11.98;;;7.10;99.90;;;;;;2104547;28;20129;-71
2021/10/27 02:13:25;;;;;;;15.73;11.70;;;7.10;99.90;;;;;;2104611;28;20075;-70
2021/10/27 02:14:26;;;;;;;17.75;12.15;;;7.10;99.90;;;;;;2105061;28;20112;-72
2021/10/27 02:15:27;;;;;;;15.05;11.88;;;7.10;99.90;;;;;;2104914;28;20040;-72
2021/10/27 02:16:28;;;;;;;15.05;11.27;;;7.00;99.90;;;;;;2105261;28;20028;-71
2021/10/27 02:17:28;;;;;;;19.23;12.73;;;7.10;99.90;;;;;;2105298;28;20050;-71
2021/10/27 02:18:30;;;;;;;19.13;12.73;;;7.00;99.90;;;;;;2105629;28;20024;-72
2021/10/27 02:19:31;;;;;;;17.77;13.15;;;7.00;99.90;;;;;;2106150;28;20089;-71
2021/10/27 02:20:32;;;;;;;18.52;13.50;;;7.10;99.90;;;;;;2106437;28;20511;-72
2021/10/27 02:21:33;;;;;;;17.15;13.18;;;7.10;99.90;;;;;;2105459;28;20506;-71
2021/10/27 02:22:34;;;;;;;18.80;13.05;;;7.10;99.90;;;;;;2096069;28;20025;-71
2021/10/27 02:23:35;;;;;;;17.92;13.77;;;7.10;99.90;;;;;;2096236;28;20032;-71
2021/10/27 02:24:35;;;;;;;18.58;13.30;;;7.10;99.90;;;;;;2104532;28;20024;-71
2021/10/27 02:25:36;;;;;;;15.65;12.38;;;7.10;99.90;;;;;;2104151;28;20028;-71
2021/10/27 02:26:37;;;;;;;15.80;12.48;;;7.00;99.90;;;;;;2104566;28;20050;-71
2021/10/27 02:27:37;;;;;;;17.27;12.82;;;7.10;99.90;;;;;;2105127;28;20028;-70
2021/10/27 02:28:38;;;;;;;19.00;13.85;;;7.00;99.90;;;;;;2105190;28;20035;-71
2021/10/27 02:29:39;;;;;;;17.60;13.38;;;7.00;99.90;;;;;;2104411;28;20090;-70
2021/10/27 02:30:39;;;;;;;18.90;13.43;;;7.00;99.90;;;;;;2104431;28;20062;-70
2021/10/27 02:31:41;;;;;;;17.50;13.25;;;7.00;99.90;;;;;;2104891;28;20027;-70
2021/10/27 02:32:41;;;;;;;17.08;12.75;;;7.00;99.90;;;;;;2105134;28;20040;-70
2021/10/27 02:33:42;;;;;;;18.05;13.18;;;7.00;99.90;;;;;;2105084;28;20117;-71
2021/10/27 02:34:42;;;;;;;17.75;13.15;;;7.00;99.90;;;;;;2104315;28;20028;-69
2021/10/27 02:35:43;;;;;;;18.75;14.13;;;7.00;99.90;;;;;;2104082;28;20142;-72
2021/10/27 02:36:44;;;;;;;19.55;14.10;;;7.00;99.90;;;;;;2104437;28;20043;-70
2021/10/27 02:37:45;;;;;;;18.58;14.02;;;7.00;99.90;;;;;;2105169;28;20063;-70
2021/10/27 02:38:45;;;;;;;21.23;14.77;;;7.00;99.90;;;;;;2104881;28;20032;-70
2021/10/27 02:39:46;;;;;;;21.70;15.23;;;7.00;99.90;;;;;;2105111;28;20032;-71
2021/10/27 02:40:48;;;;;;;19.80;14.88;;;7.00;99.90;;;;;;2105029;28;20020;-70
2021/10/27 02:41:49;;;;;;;20.88;14.77;;;7.00;99.90;;;;;;2105094;28;20032;-69
2021/10/27 02:42:49;;;;;;;20.92;14.88;;;7.00;99.90;;;;;;2105073;28;20025;-70
2021/10/27 02:43:50;;;;;;;20.42;14.68;;;7.00;99.90;;;;;;2105017;28;20395;-71
2021/10/27 02:44:51;;;;;;;22.58;15.45;;;6.90;99.90;;;;;;2105046;28;20387;-70
2021/10/27 02:45:51;;;;;;;21.35;15.75;;;7.00;99.90;;;;;;2104818;28;20039;-70
2021/10/27 02:46:52;;;;;;;18.92;14.75;;;7.00;99.90;;;;;;2105174;28;20024;-71
2021/10/27 02:47:52;;;;;;;21.92;14.90;;;6.90;99.90;;;;;;2105144;28;20032;-70
2021/10/27 02:48:53;;;;;;;21.50;14.50;;;6.90;99.90;;;;;;2105074;28;20478;-70
2021/10/27 02:49:54;;;;;;;22.80;15.35;;;6.90;99.90;;;;;;2105042;28;20519;-70
2021/10/27 02:50:54;;;;;;;21.00;15.43;;;6.90;99.90;;;;;;2105034;28;20103;-70
2021/10/27 02:51:55;;;;;;;21.52;15.25;;;6.80;99.90;;;;;;2104875;28;20476;-71
2021/10/27 02:52:55;;;;;;;21.38;15.77;;;6.80;99.90;;;;;;2104907;28;20027;-70
2021/10/27 02:53:56;;;;;;;22.92;15.85;;;6.80;99.90;;;;;;2104130;28;20081;-70
2021/10/27 02:54:57;;;;;;;22.98;15.48;;;6.80;99.90;;;;;;2096014;28;20020;-71
2021/10/27 02:55:58;;;;;;;22.60;16.00;;;6.80;99.90;;;;;;2104198;28;20027;-70
2021/10/27 02:56:59;;;;;;;20.48;15.07;;;6.80;99.90;;;;;;2105131;28;20510;-71
2021/10/27 02:58:00;;;;;;;20.02;14.75;;;6.80;99.90;;;;;;2106456;28;20059;-70
2021/10/27 02:59:01;;;;;;;22.00;14.50;;;6.80;99.90;;;;;;2106433;28;20035;-69
2021/10/27 03:00:07;;;;;;;21.55;15.65;;;6.80;99.90;;;;;;2106528;28;20012;-71
2021/10/27 03:01:08;;;;;;;21.25;15.90;;;6.70;99.90;;;;;;2106300;28;20081;-71
2021/10/27 03:02:08;;;;;;;20.17;15.07;;;6.70;99.90;;;;;;2106473;28;20107;-72
2021/10/27 03:03:09;;;;;;;20.92;14.95;;;6.70;99.90;;;;;;2106514;28;20028;-71
2021/10/27 03:04:09;;;;;;;21.15;15.50;;;6.70;99.90;;;;;;2106387;28;20379;-71
2021/10/27 03:05:10;;;;;;;21.20;15.18;;;6.70;99.90;;;;;;2105823;28;20024;-71
2021/10/27 03:06:11;;;;;;;19.90;14.48;;;6.70;99.90;;;;;;2105705;28;20372;-71
2021/10/27 03:07:11;;;;;;;22.35;15.38;;;6.60;99.90;;;;;;2106397;28;20016;-71
2021/10/27 03:08:12;;;;;;;22.38;16.00;;;6.60;99.90;;;;;;2105845;28;20028;-71
2021/10/27 03:09:12;;;;;;;22.67;15.30;;;6.60;99.90;;;;;;2097358;28;20024;-71
2021/10/27 03:10:13;;;;;;;23.60;15.98;;;6.60;99.90;;;;;;2105795;28;20024;-70
2021/10/27 03:11:14;;;;;;;20.88;15.20;;;6.60;99.90;;;;;;2105646;28;20058;-69
2021/10/27 03:12:15;;;;;;;23.45;16.25;;;6.60;99.90;;;;;;2105860;28;20047;-70
2021/10/27 03:13:16;;;;;;;22.23;16.27;;;6.60;99.90;;;;;;2105753;28;20042;-69
2021/10/27 03:14:16;;;;;;;23.40;16.48;;;6.60;99.90;;;;;;2097415;28;20029;-71
2021/10/27 03:15:18;;;;;;;22.83;16.35;;;6.60;99.90;;;;;;2105866;28;20097;-70
2021/10/27 03:16:18;;;;;;;21.98;15.60;;;6.60;99.90;;;;;;2105695;28;20028;-70
2021/10/27 03:17:19;;;;;;;21.52;15.70;;;6.60;99.90;;;;;;2105875;28;20732;-71
2021/10/27 03:18:20;;;;;;;21.48;15.95;;;6.60;99.90;;;;;;2106434;28;20074;-70
2021/10/27 03:19:20;;;;;;;24.17;16.42;;;6.60;99.90;;;;;;2106433;28;20081;-70
2021/10/27 03:20:21;;;;;;;23.45;16.17;;;6.60;99.90;;;;;;2105680;28;20442;-71
2021/10/27 03:21:22;;;;;;;25.60;17.80;;;6.60;99.90;;;;;;2105768;28;20031;-70
2021/10/27 03:22:23;;;;;;;25.58;17.85;;;6.60;99.90;;;;;;2106510;28;20492;-70
2021/10/27 03:23:23;;;;;;;26.77;18.23;;;6.60;99.90;;;;;;2106158;28;20028;-70
2021/10/27 03:24:24;;;;;;;25.67;18.20;;;6.60;99.90;;;;;;2106228;28;20052;-70
2021/10/27 03:25:25;;;;;;;26.95;19.27;;;6.60;99.90;;;;;;2106304;28;20032;-70
2021/10/27 03:26:26;;;;;;;27.02;19.40;;;6.60;99.90;;;;;;2106129;28;20085;-70
2021/10/27 03:27:27;;;;;;;28.15;18.77;;;6.60;99.90;;;;;;2106293;28;20036;-69
2021/10/27 03:28:27;;;;;;;27.25;19.48;;;6.60;99.90;;;;;;2106274;28;20052;-70
2021/10/27 03:29:28;;;;;;;29.42;19.35;;;6.50;99.90;;;;;;2106309;28;20038;-71
2021/10/27 03:30:30;;;;;;;29.25;19.02;;;6.60;99.90;;;;;;2105621;28;20044;-70
2021/10/27 03:31:30;;;;;;;27.13;19.13;;;6.60;99.90;;;;;;2105683;28;20061;-71
2021/10/27 03:32:32;;;;;;;27.67;19.05;;;6.50;99.90;;;;;;2106260;28;20039;-71
2021/10/27 03:33:33;;;;;;;29.75;19.40;;;6.50;99.90;;;;;;2106308;28;20027;-71
2021/10/27 03:34:33;;;;;;;27.27;19.88;;;6.50;99.90;;;;;;2106209;28;20037;-69
2021/10/27 03:35:34;;;;;;;29.95;20.63;;;6.50;99.90;;;;;;2106217;28;20028;-71
2021/10/27 03:36:34;;;;;;;29.98;20.17;;;6.50;99.90;;;;;;2106438;28;20104;-70
2021/10/27 03:37:35;;;;;;;32.67;20.77;;;6.50;99.90;;;;;;2106384;28;20032;-70
2021/10/27 03:38:36;;;;;;;29.88;20.33;;;6.50;99.90;;;;;;2106841;28;20411;-72
2021/10/27 03:39:37;;;;;;;29.92;20.05;;;6.50;99.90;;;;;;2106610;28;20024;-71
2021/10/27 03:40:38;;;;;;;31.00;20.23;;;6.50;99.90;;;;;;2105941;28;20032;-71
2021/10/27 03:41:39;;;;;;;29.42;20.75;;;6.40;99.90;;;;;;2105998;28;20059;-74
2021/10/27 03:42:40;;;;;;;30.20;20.52;;;6.40;99.90;;;;;;2106483;28;20024;-70
2021/10/27 03:43:41;;;;;;;29.77;20.38;;;6.40;99.90;;;;;;2105684;28;20135;-70
2021/10/27 03:44:42;;;;;;;31.50;20.83;;;6.40;99.90;;;;;;2097394;28;20083;-70
2021/10/27 03:45:43;;;;;;;29.50;20.52;;;6.40;99.90;;;;;;2105512;28;20024;-70
2021/10/27 03:46:43;;;;;;;27.27;19.83;;;6.40;99.90;;;;;;2106340;28;20024;-70
2021/10/27 03:47:44;;;;;;;29.95;20.63;;;6.30;99.90;;;;;;2105721;28;20063;-70
2021/10/27 03:48:45;;;;;;;29.75;20.30;;;6.30;99.90;;;;;;2097189;28;20103;-72
2021/10/27 03:49:46;;;;;;;29.88;20.33;;;6.30;99.90;;;;;;2105724;28;20039;-71
2021/10/27 03:50:46;;;;;;;28.90;20.50;;;6.30;99.90;;;;;;2106218;28;20050;-71
2021/10/27 03:51:48;;;;;;;28.08;19.63;;;6.30;99.90;;;;;;2106311;28;20034;-72
2021/10/27 03:52:48;;;;;;;30.48;21.10;;;6.30;99.90;;;;;;2106247;28;20124;-71
2021/10/27 03:53:49;;;;;;;28.45;20.08;;;6.30;99.90;;;;;;2106219;28;20498;-71
2021/10/27 03:54:50;;;;;;;30.23;21.23;;;6.30;99.90;;;;;;2106179;28;20153;-71
2021/10/27 03:55:51;;;;;;;29.58;20.98;;;6.30;99.90;;;;;;2106184;28;20082;-70
2021/10/27 03:56:51;;;;;;;33.95;21.30;;;6.30;99.90;;;;;;2106113;28;20438;-71
2021/10/27 03:57:52;;;;;;;29.42;21.33;;;6.30;99.90;;;;;;2106100;28;20678;-71
2021/10/27 03:58:52;;;;;;;30.25;21.25;;;6.30;99.90;;;;;;2105345;28;20114;-71
2021/10/27 03:59:53;;;;;;;30.42;21.30;;;6.30;99.90;;;;;;2105427;28;20073;-71
2021/10/27 04:00:54;;;;;;;32.03;20.88;;;6.20;99.90;;;;;;2105824;28;20051;-71
2021/10/27 04:01:54;;;;;;;29.30;20.70;;;6.20;99.90;;;;;;2105904;28;20503;-71
2021/10/27 04:02:55;;;;;;;29.73;21.00;;;6.20;99.90;;;;;;2106115;28;20429;-71
2021/10/27 04:03:56;;;;;;;29.25;20.35;;;6.20;99.90;;;;;;2096868;28;20500;-72
2021/10/27 04:04:56;;;;;;;29.98;20.63;;;6.20;99.90;;;;;;2097104;28;20127;-72
2021/10/27 04:05:57;;;;;;;29.48;20.27;;;6.20;99.90;;;;;;2105967;28;20103;-71
2021/10/27 04:06:58;;;;;;;31.95;20.73;;;6.20;99.90;;;;;;2106040;28;20032;-71
2021/10/27 04:07:58;;;;;;;29.98;20.80;;;6.20;99.90;;;;;;2105693;28;20357;-71
2021/10/27 04:08:59;;;;;;;29.77;21.48;;;6.20;99.90;;;;;;2105437;28;20069;-71
2021/10/27 04:09:59;;;;;;;29.52;20.65;;;6.20;99.90;;;;;;2096973;28;20078;-72
2021/10/27 04:11:00;;;;;;;31.50;22.00;;;6.20;99.90;;;;;;2105150;28;20017;-72
2021/10/27 04:12:01;;;;;;;30.65;21.35;;;6.20;99.90;;;;;;2105815;28;20060;-72
2021/10/27 04:13:01;;;;;;;31.73;21.65;;;6.20;99.90;;;;;;2105566;28;20028;-71
2021/10/27 04:14:02;;;;;;;34.58;23.25;;;6.20;99.90;;;;;;2106169;28;20023;-72
2021/10/27 04:15:05;;;;;;;34.67;23.05;;;6.10;99.90;;;;;;2107051;28;20502;-72
2021/10/27 04:16:06;;;;;;;35.53;23.85;;;6.20;99.90;;;;;;2106832;28;20024;-72
2021/10/27 04:17:06;;;;;;;31.52;22.15;;;6.20;99.90;;;;;;2106388;28;20081;-71
2021/10/27 04:18:07;;;;;;;36.20;24.27;;;6.10;99.90;;;;;;2105974;28;20103;-71
2021/10/27 04:19:08;;;;;;;36.28;24.45;;;6.20;99.90;;;;;;2105717;28;20028;-72
2021/10/27 04:20:10;;;;;;;38.58;25.27;;;6.20;99.90;;;;;;2105214;28;20020;-72
2021/10/27 04:21:11;;;;;;;36.33;24.73;;;6.20;99.90;;;;;;2105259;28;20039;-71
2021/10/27 04:22:11;;;;;;;35.90;24.50;;;6.20;99.90;;;;;;2105837;28;20021;-71
2021/10/27 04:23:12;;;;;;;35.10;23.60;;;6.20;99.90;;;;;;2105163;28;20024;-71
2021/10/27 04:24:12;;;;;;;34.58;24.40;;;6.10;99.90;;;;;;2105145;28;20024;-71
2021/10/27 04:25:13;;;;;;;36.65;24.65;;;6.10;99.90;;;;;;2105320;28;20515;-71
2021/10/27 04:26:14;;;;;;;36.78;25.55;;;6.20;99.90;;;;;;2104941;28;20023;-71
2021/10/27 04:27:15;;;;;;;40.53;27.25;;;6.20;99.90;;;;;;2105953;28;20471;-70
2021/10/27 04:28:15;;;;;;;40.13;27.05;;;6.20;99.90;;;;;;2105243;28;20110;-71
2021/10/27 04:29:16;;;;;;;39.80;26.33;;;6.10;99.90;;;;;;2105226;28;20032;-73
2021/10/27 04:30:17;;;;;;;44.70;28.92;;;6.10;99.90;;;;;;2105926;28;20032;-70
2021/10/27 04:31:19;;;;;;;53.47;33.40;;;6.10;99.90;;;;;;2105821;28;20056;-70
2021/10/27 04:32:19;;;;;;;61.63;39.72;;;6.20;99.90;;;;;;2105910;28;20024;-70
2021/10/27 04:33:22;;;;;;;55.00;34.83;;;6.20;99.90;;;;;;2106004;28;20100;-70
2021/10/27 04:34:22;;;;;;;49.13;32.85;;;6.20;99.90;;;;;;2105780;28;20090;-70
2021/10/27 04:35:24;;;;;;;45.60;30.15;;;6.20;99.90;;;;;;2105832;28;20055;-70
2021/10/27 04:36:25;;;;;;;43.40;29.00;;;6.20;99.90;;;;;;2105411;28;20032;-70
2021/10/27 04:37:26;;;;;;;43.03;28.55;;;6.20;99.90;;;;;;2105845;28;20562;-70
2021/10/27 04:38:27;;;;;;;43.60;28.55;;;6.10;99.90;;;;;;2105827;28;20479;-70
2021/10/27 04:39:28;;;;;;;38.95;26.55;;;6.10;99.90;;;;;;2105996;28;20064;-70
2021/10/27 04:40:29;;;;;;;40.00;26.33;;;6.10;99.90;;;;;;2105953;28;20107;-71
2021/10/27 04:41:29;;;;;;;39.50;25.88;;;6.10;99.90;;;;;;2105735;28;20028;-70
2021/10/27 04:42:30;;;;;;;40.13;26.10;;;6.10;99.90;;;;;;2105920;28;20499;-70
2021/10/27 04:43:31;;;;;;;38.25;26.67;;;6.10;99.90;;;;;;2106068;28;20067;-71
2021/10/27 04:44:31;;;;;;;42.55;26.50;;;6.10;99.90;;;;;;2105963;28;20030;-70
2021/10/27 04:45:32;;;;;;;39.38;25.58;;;6.00;99.90;;;;;;2105664;28;20475;-70
2021/10/27 04:46:32;;;;;;;39.17;26.60;;;6.00;99.90;;;;;;2106308;28;20092;-71
2021/10/27 04:47:34;;;;;;;39.47;26.35;;;6.00;99.90;;;;;;2105551;28;20028;-70
2021/10/27 04:48:35;;;;;;;39.38;25.42;;;6.00;99.90;;;;;;2105438;28;20659;-70
2021/10/27 04:49:35;;;;;;;38.67;25.63;;;6.00;99.90;;;;;;2106652;28;20111;-71
2021/10/27 04:50:36;;;;;;;36.92;25.15;;;6.00;99.90;;;;;;2107502;28;20031;-72
2021/10/27 04:51:37;;;;;;;40.50;26.30;;;6.00;99.90;;;;;;2107559;28;20036;-71
2021/10/27 04:52:38;;;;;;;38.72;25.88;;;6.00;99.90;;;;;;2106855;28;20067;-70
2021/10/27 04:53:38;;;;;;;38.70;26.00;;;6.00;99.90;;;;;;2105809;28;20454;-71
2021/10/27 04:54:40;;;;;;;38.55;24.95;;;6.00;99.90;;;;;;2105812;28;20031;-71
2021/10/27 04:55:42;;;;;;;37.92;25.60;;;6.00;99.90;;;;;;2105045;28;20569;-71
2021/10/27 04:56:43;;;;;;;37.08;24.98;;;5.90;99.90;;;;;;2105241;28;20103;-71
2021/10/27 04:57:44;;;;;;;35.85;24.88;;;5.90;99.90;;;;;;2105961;28;20020;-70
2021/10/27 04:58:45;;;;;;;36.78;24.98;;;5.90;99.90;;;;;;2105632;28;20115;-71
2021/10/27 04:59:46;;;;;;;38.28;25.05;;;5.90;99.90;;;;;;2105770;28;20039;-72
2021/10/27 05:00:47;;;;;;;38.33;25.35;;;5.90;99.90;;;;;;2105921;28;20711;-70
2021/10/27 05:01:48;;;;;;;39.53;25.88;;;5.90;99.90;;;;;;2105706;28;20471;-71
2021/10/27 05:02:48;;;;;;;40.63;26.40;;;5.90;99.90;;;;;;2105708;28;20020;-71
2021/10/27 05:03:49;;;;;;;40.05;26.13;;;5.90;99.90;;;;;;2105689;28;20063;-70
2021/10/27 05:04:51;;;;;;;37.78;26.27;;;5.90;99.90;;;;;;2096664;28;20404;-70
2021/10/27 05:05:56;;;;;;;40.40;27.20;;;5.90;99.90;;;;;;2096592;28;20027;-70
2021/10/27 05:06:56;;;;;;;43.42;28.25;;;5.90;99.90;;;;;;2105676;28;20023;-70
2021/10/27 05:07:59;;;;;;;44.65;28.40;;;5.90;99.90;;;;;;2105127;28;20832;-71
2021/10/27 05:09:00;;;;;;;43.97;28.08;;;5.90;99.90;;;;;;2104910;28;20103;-70
2021/10/27 05:10:01;;;;;;;44.78;28.58;;;5.90;99.90;;;;;;2105507;28;20025;-71
2021/10/27 05:11:02;;;;;;;44.30;28.60;;;5.90;99.90;;;;;;2104936;28;20151;-70
2021/10/27 05:12:06;;;;;;;41.47;27.67;;;5.80;99.90;;;;;;2104840;28;20032;-71
2021/10/27 05:13:07;;;;;;;44.88;29.05;;;5.90;99.90;;;;;;2105936;28;20031;-72